createdAt,value
2022-08-05T00:02:18.883Z,15.35
2022-08-05T00:04:55.282Z,15.85
2022-08-05T00:07:59.047Z,17.33
2022-08-05T00:10:11.119Z,14.60
2022-08-05T00:12:55.900Z,14.27
2022-08-05T00:15:55.933Z,13.98
2022-08-05T00:18:21.799Z,16.55
2022-08-05T00:20:51.612Z,14.73
2022-08-05T00:23:44.340Z,14.45
2022-08-05T00:26:08.066Z,11.02
2022-08-05T00:28:40.766Z,9.88
2022-08-05T00:31:13.299Z,13.48
2022-08-05T00:34:55.923Z,11.05
2022-08-05T00:37:11.344Z,9.65
2022-08-05T00:39:37.034Z,9.75
2022-08-05T00:45:01.940Z,10.95
2022-08-05T00:47:53.331Z,9.60
2022-08-05T00:50:17.105Z,7.45
2022-08-05T00:52:45.409Z,9.52
2022-08-05T00:55:20.064Z,7.20
2022-08-05T00:57:55.503Z,6.82
2022-08-05T01:03:24.300Z,4.97
2022-08-05T01:05:59.032Z,8.70
2022-08-05T01:08:42.985Z,6.47
2022-08-05T01:11:22.458Z,9.13
2022-08-05T01:14:04.064Z,6.55
2022-08-05T01:16:46.173Z,6.53
2022-08-05T01:19:56.230Z,6.38
2022-08-05T01:22:50.280Z,6.55
2022-08-05T01:25:57.893Z,5.60
2022-08-05T01:28:27.675Z,5.63
2022-08-05T01:30:59.350Z,5.22
2022-08-05T01:33:35.325Z,4.75
2022-08-05T01:36:13.185Z,5.43
2022-08-05T01:38:55.158Z,5.20
2022-08-05T01:41:25.682Z,7.70
2022-08-05T01:43:54.578Z,4.18
2022-08-05T01:46:41.387Z,3.90
2022-08-05T01:49:23.896Z,5.90
2022-08-05T01:52:19.153Z,4.72
2022-08-05T01:54:56.894Z,4.18
2022-08-05T01:58:11.725Z,5.40
2022-08-05T02:00:49.434Z,5.05
2022-08-05T02:03:31.773Z,3.55
2022-08-05T02:06:03.590Z,4.50
2022-08-05T02:08:54.753Z,5.65
2022-08-05T02:11:42.524Z,6.15
2022-08-05T02:14:32.606Z,4.07
2022-08-05T02:17:07.833Z,5.10
2022-08-05T02:19:49.860Z,4.55
2022-08-05T02:22:27.317Z,4.60
2022-08-05T02:28:28.352Z,6.15
2022-08-05T02:31:34.783Z,6.28
2022-08-05T02:34:11.764Z,4.88
2022-08-05T02:36:58.400Z,4.65
2022-08-05T02:39:29.460Z,6.53
2022-08-05T02:42:01.451Z,4.45
2022-08-05T02:44:31.922Z,6.85
2022-08-05T02:49:51.835Z,4.63
2022-08-05T02:52:29.464Z,5.25
2022-08-05T02:58:22.269Z,9.13
2022-08-05T03:00:53.435Z,3.97
2022-08-05T03:03:23.547Z,4.45
2022-08-05T03:06:55.042Z,7.63
2022-08-05T03:08:42.718Z,7.43
2022-08-05T03:11:57.216Z,7.95
2022-08-05T03:14:20.185Z,4.18
2022-08-05T03:17:12.883Z,5.15
2022-08-05T03:19:41.957Z,5.07
2022-08-05T03:22:39.018Z,5.10
2022-08-05T03:25:33.878Z,5.15
2022-08-05T03:28:14.045Z,9.15
2022-08-05T03:30:44.429Z,6.00
2022-08-05T03:33:42.180Z,6.15
2022-08-05T03:36:17.777Z,4.88
2022-08-05T03:39:08.072Z,6.70
2022-08-05T03:41:45.353Z,7.85
2022-08-05T03:44:19.895Z,7.43
2022-08-05T03:46:48.878Z,6.60
2022-08-05T03:50:08.599Z,8.98
2022-08-05T03:55:33.981Z,5.70
2022-08-05T03:56:34.803Z,6.63
2022-08-05T03:59:07.602Z,6.43
2022-08-05T04:01:42.492Z,6.70
2022-08-05T04:04:21.334Z,6.60
2022-08-05T04:06:51.187Z,5.00
2022-08-05T04:09:20.340Z,7.13
2022-08-05T04:12:04.770Z,8.50
2022-08-05T04:17:56.673Z,6.70
2022-08-05T04:20:24.896Z,6.63
2022-08-05T04:23:16.952Z,7.20
2022-08-05T04:26:09.132Z,6.50
2022-08-05T04:28:51.058Z,5.40
2022-08-05T04:31:45.228Z,6.18
2022-08-05T04:34:32.891Z,6.47
2022-08-05T04:40:19.617Z,5.25
2022-08-05T04:42:46.914Z,5.20
2022-08-05T04:45:48.762Z,6.38
2022-08-05T04:48:27.519Z,6.43
2022-08-05T04:51:01.756Z,7.97
2022-08-05T04:53:42.917Z,5.43
2022-08-05T04:56:34.244Z,6.57
2022-08-05T04:59:39.261Z,6.40
2022-08-05T05:02:36.893Z,5.07
2022-08-05T05:05:01.806Z,5.82
2022-08-05T05:07:32.591Z,9.95
2022-08-05T05:10:06.373Z,6.55
2022-08-05T05:12:36.592Z,6.20
2022-08-05T05:15:06.091Z,7.85
2022-08-05T05:17:55.797Z,7.63
2022-08-05T05:20:28.159Z,6.35
2022-08-05T05:23:08.428Z,7.97
2022-08-05T05:31:58.575Z,5.82
2022-08-05T05:34:32.007Z,6.72
2022-08-05T05:39:50.990Z,9.90
2022-08-05T05:45:38.902Z,6.78
2022-08-05T05:48:16.912Z,7.25
2022-08-05T05:50:44.901Z,8.18
2022-08-05T05:53:22.049Z,6.07
2022-08-05T05:56:00.896Z,6.60
2022-08-05T06:01:23.339Z,4.68
2022-08-05T06:04:01.256Z,8.18
2022-08-05T06:06:36.011Z,7.85
2022-08-05T06:09:07.678Z,6.90
2022-08-05T06:11:35.210Z,7.57
2022-08-05T06:17:30.885Z,6.25
2022-08-05T06:23:16.922Z,8.20
2022-08-05T06:26:12.220Z,5.88
2022-08-05T06:28:32.918Z,7.63
2022-08-05T06:31:11.202Z,6.82
2022-08-05T06:34:09.028Z,8.88
2022-08-05T06:36:57.124Z,6.25
2022-08-05T06:39:27.874Z,7.30
2022-08-05T06:42:04.113Z,6.40
2022-08-05T06:44:37.833Z,7.05
2022-08-05T06:47:30.021Z,5.20
2022-08-05T06:50:00.119Z,6.20
2022-08-05T06:52:38.157Z,8.95
2022-08-05T06:55:14.287Z,9.00
2022-08-05T06:58:02.583Z,8.23
2022-08-05T07:01:07.267Z,8.90
2022-08-05T07:03:35.111Z,9.00
2022-08-05T07:06:05.955Z,8.02
2022-08-05T07:08:47.704Z,7.57
2022-08-05T07:11:25.620Z,10.05
2022-08-05T07:14:20.055Z,7.55
2022-08-05T07:17:59.180Z,9.05
2022-08-05T07:22:58.399Z,7.30
2022-08-05T07:25:56.397Z,6.95
2022-08-05T07:28:23.335Z,8.32
2022-08-05T07:30:52.893Z,6.72
2022-08-05T07:33:36.792Z,6.43
2022-08-05T07:36:21.610Z,8.43
2022-08-05T07:38:49.394Z,7.30
2022-08-05T07:42:14.609Z,8.00
2022-08-05T07:44:23.066Z,7.25
2022-08-05T07:46:50.992Z,6.57
2022-08-05T07:49:24.973Z,8.20
2022-08-05T07:52:00.046Z,6.35
2022-08-05T07:54:30.398Z,7.38
2022-08-05T07:57:14.657Z,6.15
2022-08-05T07:59:48.908Z,6.32
2022-08-05T08:02:17.850Z,6.22
2022-08-05T08:04:53.534Z,6.97
2022-08-05T08:07:22.396Z,8.82
2022-08-05T08:09:57.553Z,5.10
2022-08-05T08:12:36.993Z,7.57
2022-08-05T08:15:15.793Z,7.18
2022-08-05T08:17:52.727Z,8.13
2022-08-05T08:20:43.394Z,9.23
2022-08-05T08:24:00.421Z,7.68
2022-08-05T08:26:29.574Z,6.07
2022-08-05T08:28:59.836Z,5.15
2022-08-05T08:34:30.196Z,6.53
2022-08-05T08:37:06.637Z,8.90
2022-08-05T08:39:37.124Z,7.63
2022-08-05T08:42:10.757Z,6.60
2022-08-05T08:44:55.014Z,6.85
2022-08-05T08:48:05.785Z,8.30
2022-08-05T08:51:03.650Z,6.07
2022-08-05T08:54:14.923Z,7.27
2022-08-05T08:56:47.893Z,5.80
2022-08-05T08:59:20.771Z,8.15
2022-08-05T09:01:57.295Z,5.45
2022-08-05T09:06:07.694Z,4.25
2022-08-05T09:08:30.289Z,6.13
2022-08-05T09:10:59.313Z,5.35
2022-08-05T09:14:01.089Z,7.43
2022-08-05T09:16:23.082Z,5.70
2022-08-05T09:18:55.356Z,5.60
2022-08-05T09:22:22.143Z,4.13
2022-08-05T09:24:42.645Z,5.25
2022-08-05T09:28:04.703Z,4.57
2022-08-05T09:30:30.983Z,4.75
2022-08-05T09:33:02.385Z,9.15
2022-08-05T09:35:37.146Z,3.85
2022-08-05T09:38:12.611Z,4.13
2022-08-05T09:40:55.088Z,4.22
2022-08-05T09:43:41.725Z,4.60
2022-08-05T09:46:28.452Z,5.95
2022-08-05T09:51:49.637Z,4.00
2022-08-05T09:54:55.508Z,3.45
2022-08-05T09:57:39.561Z,5.60
2022-08-05T10:00:16.859Z,6.85
2022-08-05T10:02:50.482Z,4.03
2022-08-05T10:05:20.845Z,4.88
2022-08-05T10:08:36.877Z,4.60
2022-08-05T10:17:37.354Z,5.25
2022-08-05T10:20:10.936Z,4.40
2022-08-05T10:22:42.883Z,5.50
2022-08-05T10:25:16.981Z,4.75
2022-08-05T10:28:16.819Z,5.22
2022-08-05T10:32:51.578Z,5.40
2022-08-05T10:33:36.007Z,7.15
2022-08-05T10:36:07.769Z,11.18
2022-08-05T10:38:44.967Z,13.88
2022-08-05T10:41:46.537Z,10.63
2022-08-05T10:46:54.700Z,11.63
2022-08-05T10:49:27.524Z,11.93
2022-08-05T10:52:03.205Z,4.95
2022-08-05T10:54:56.410Z,7.50
2022-08-05T10:57:29.433Z,4.72
2022-08-05T11:00:29.873Z,6.03
2022-08-05T11:03:22.766Z,7.10
2022-08-05T11:06:15.326Z,4.80
2022-08-05T11:09:17.379Z,5.53
2022-08-05T11:11:54.383Z,4.00
2022-08-05T11:15:00.922Z,8.25
2022-08-05T11:20:43.722Z,6.10
2022-08-05T11:24:03.875Z,8.40
2022-08-05T11:26:43.159Z,6.63
2022-08-05T11:29:34.695Z,6.32
2022-08-05T11:36:07.521Z,6.28
2022-08-05T11:39:06.256Z,6.05
2022-08-05T11:42:01.405Z,7.13
2022-08-05T11:45:03.421Z,5.25
2022-08-05T11:50:32.808Z,4.15
2022-08-05T11:53:06.316Z,4.57
2022-08-05T11:55:37.042Z,6.47
2022-08-05T11:58:09.203Z,5.70
2022-08-05T12:01:08.335Z,6.60
2022-08-05T12:03:56.149Z,4.05
2022-08-05T12:06:54.636Z,3.53
2022-08-05T12:09:53.033Z,4.28
2022-08-05T12:12:30.162Z,5.25
2022-08-05T12:18:09.979Z,7.82
2022-08-05T12:20:44.306Z,3.75
2022-08-05T12:23:13.439Z,3.38
2022-08-05T12:25:52.660Z,3.20
2022-08-05T12:31:46.046Z,3.50
2022-08-05T14:02:19.936Z,6.10
2022-08-05T14:05:29.498Z,4.47
2022-08-05T14:11:03.370Z,5.47
2022-08-05T14:14:09.098Z,3.53
2022-08-05T14:17:04.408Z,2.97
2022-08-05T14:19:55.404Z,8.50
2022-08-05T14:22:56.022Z,3.65
2022-08-05T14:25:27.795Z,3.20
2022-08-05T15:13:10.000Z,4.25
2022-08-05T15:15:55.584Z,4.68
2022-08-05T15:21:30.538Z,4.88
2022-08-05T15:23:59.419Z,4.40
2022-08-05T15:26:37.115Z,4.35
2022-08-05T15:29:05.581Z,3.50
2022-08-05T15:31:51.019Z,6.05
2022-08-05T15:34:32.216Z,4.18
2022-08-05T15:37:06.797Z,5.07
2022-08-05T15:41:03.072Z,3.55
2022-08-05T15:46:00.705Z,4.40
2022-08-05T15:48:33.510Z,4.18
2022-08-05T15:51:05.965Z,7.00
2022-08-05T15:53:38.329Z,3.50
2022-08-05T15:56:25.264Z,6.30
2022-08-05T15:58:59.048Z,5.70
2022-08-05T16:01:29.342Z,4.80
2022-08-05T16:04:03.201Z,4.95
2022-08-05T16:06:30.909Z,2.60
2022-08-05T16:08:58.928Z,3.88
2022-08-05T16:11:42.339Z,3.45
2022-08-05T16:14:17.190Z,2.83
2022-08-05T16:17:10.334Z,3.83
2022-08-05T16:20:03.341Z,3.25
2022-08-05T16:22:34.675Z,2.95
2022-08-05T16:25:33.834Z,3.00
2022-08-05T16:28:05.625Z,2.90
2022-08-05T16:30:36.093Z,6.03
2022-08-05T16:33:05.014Z,3.95
2022-08-05T16:35:43.002Z,3.13
2022-08-05T16:38:21.873Z,3.17
2022-08-05T16:40:59.872Z,4.07
2022-08-05T16:43:34.491Z,3.45
2022-08-05T16:46:23.846Z,2.30
2022-08-05T16:51:51.092Z,3.45
2022-08-05T16:54:48.261Z,4.38
2022-08-05T16:57:26.765Z,1.98
2022-08-05T17:00:14.242Z,3.55
2022-08-05T17:03:43.534Z,4.35
2022-08-05T17:06:11.158Z,3.90
2022-08-05T17:08:52.676Z,2.97
2022-08-05T17:11:27.700Z,4.20
2022-08-05T17:16:47.024Z,2.42
2022-08-05T17:19:25.967Z,2.58
2022-08-05T17:21:52.914Z,6.10
2022-08-05T17:24:35.183Z,2.67
2022-08-05T17:27:10.901Z,2.33
2022-08-05T17:29:40.819Z,1.67
2022-08-05T17:32:16.841Z,4.55
2022-08-05T17:35:20.625Z,4.40
2022-08-05T17:37:49.364Z,1.95
2022-08-05T17:40:22.888Z,1.50
2022-08-05T17:42:52.803Z,3.28
2022-08-05T17:45:23.054Z,1.98
2022-08-05T17:47:54.857Z,3.15
2022-08-05T17:50:28.375Z,3.03
2022-08-05T17:52:59.104Z,1.23
2022-08-05T17:55:37.294Z,1.83
2022-08-05T17:58:12.218Z,2.38
2022-08-05T18:00:47.781Z,2.03
2022-08-05T18:06:31.163Z,4.72
2022-08-05T18:09:06.085Z,2.15
2022-08-05T18:11:42.873Z,4.88
2022-08-05T18:14:13.518Z,0.93
2022-08-05T18:19:41.036Z,1.60
2022-08-05T18:22:22.902Z,2.22
2022-08-05T18:24:50.871Z,1.77
2022-08-05T18:27:19.194Z,3.17
2022-08-05T18:29:53.693Z,2.85
2022-08-05T18:32:28.269Z,2.70
2022-08-05T18:34:57.940Z,2.05
2022-08-05T18:37:34.683Z,3.33
2022-08-05T18:43:38.355Z,3.92
2022-08-05T18:46:10.974Z,1.23
2022-08-05T18:48:44.988Z,2.95
2022-08-05T18:52:05.106Z,1.52
2022-08-05T18:54:20.865Z,1.67
2022-08-05T18:56:54.020Z,1.98
2022-08-05T18:59:43.651Z,2.20
2022-08-05T19:02:26.592Z,0.75
2022-08-05T19:05:02.982Z,1.65
2022-08-05T19:07:50.339Z,1.85
2022-08-05T19:10:28.079Z,1.30
2022-08-05T19:13:21.629Z,2.15
2022-08-05T19:15:59.712Z,2.65
2022-08-05T19:18:57.184Z,1.77
2022-08-05T19:21:27.678Z,1.30
2022-08-05T19:24:05.142Z,3.15
2022-08-05T19:27:06.022Z,2.80
2022-08-05T19:29:36.153Z,2.72
2022-08-05T19:32:08.576Z,1.40
2022-08-05T19:34:39.002Z,1.85
2022-08-05T19:37:07.014Z,1.13
2022-08-05T19:39:45.112Z,1.27
2022-08-05T19:42:35.383Z,1.33
2022-08-05T19:45:05.979Z,1.13
2022-08-05T19:47:34.060Z,2.20
2022-08-05T19:50:07.865Z,1.85
2022-08-05T19:52:38.962Z,1.23
2022-08-05T19:56:15.165Z,3.75
2022-08-05T19:58:14.464Z,1.40
2022-08-05T20:00:54.256Z,1.30
2022-08-05T20:03:22.981Z,2.42
2022-08-05T20:05:56.690Z,1.98
2022-08-05T20:08:52.344Z,1.50
2022-08-05T20:11:25.181Z,2.55
2022-08-05T20:14:26.796Z,3.13
2022-08-05T20:16:55.838Z,1.67
2022-08-05T20:19:25.933Z,1.77
2022-08-05T20:22:03.095Z,2.67
2022-08-05T20:27:27.497Z,3.55
2022-08-05T20:30:15.316Z,2.35
2022-08-05T20:32:46.955Z,4.68
2022-08-05T20:35:14.945Z,2.92
2022-08-05T20:38:07.809Z,3.35
2022-08-05T20:40:33.025Z,3.15
2022-08-05T20:43:08.754Z,1.83
2022-08-05T20:45:55.914Z,2.30
2022-08-05T20:48:24.896Z,2.10
2022-08-05T20:50:58.019Z,2.90
2022-08-05T20:53:36.450Z,1.50
2022-08-05T20:56:42.161Z,2.30
2022-08-05T20:59:18.968Z,4.10
2022-08-05T21:02:19.304Z,4.40
2022-08-05T21:07:51.991Z,2.50
2022-08-05T21:10:21.554Z,3.25
2022-08-05T21:13:08.952Z,2.78
2022-08-05T21:15:44.387Z,3.22
2022-08-05T21:21:05.296Z,2.22
2022-08-05T21:23:37.061Z,2.35
2022-08-05T21:26:31.438Z,2.10
2022-08-05T21:29:26.654Z,1.73
2022-08-05T21:32:02.503Z,3.88
2022-08-05T21:34:31.713Z,1.92
2022-08-05T21:37:01.016Z,1.55
2022-08-05T21:39:29.842Z,2.55
2022-08-05T21:42:01.457Z,4.22
2022-08-05T21:44:32.074Z,4.35
2022-08-05T21:46:59.903Z,4.35
2022-08-05T21:49:58.707Z,2.03
2022-08-05T21:52:28.344Z,1.80
2022-08-05T21:55:06.397Z,2.88
2022-08-05T21:57:35.966Z,4.90
2022-08-05T22:00:11.186Z,2.22
2022-08-05T22:03:09.923Z,3.25
2022-08-05T22:05:48.836Z,2.10
2022-08-05T22:08:22.066Z,3.95
2022-08-05T22:10:57.161Z,2.47
2022-08-05T22:14:05.897Z,3.55
2022-08-05T22:16:41.156Z,3.88
2022-08-05T22:19:00.981Z,2.67
2022-08-05T22:21:29.114Z,6.03
2022-08-05T22:28:11.166Z,2.65
2022-08-05T22:30:16.110Z,4.93
2022-08-05T22:32:49.005Z,2.20
2022-08-05T22:35:21.989Z,2.97
2022-08-05T22:37:58.779Z,2.05
2022-08-05T22:43:37.244Z,3.67
2022-08-05T22:46:13.574Z,4.20
2022-08-05T22:48:50.978Z,3.22
2022-08-05T22:52:02.539Z,2.92
2022-08-05T23:00:23.022Z,2.90
2022-08-05T23:02:53.224Z,2.25
2022-08-05T23:05:22.234Z,2.45
2022-08-05T23:07:52.188Z,4.10
2022-08-05T23:10:24.856Z,3.55
2022-08-05T23:12:57.230Z,2.00
2022-08-05T23:15:30.017Z,3.58
2022-08-05T23:18:06.045Z,2.47
2022-08-05T23:20:43.221Z,4.47
2022-08-05T23:23:10.832Z,3.50
2022-08-05T23:25:52.253Z,2.95
2022-08-05T23:28:30.970Z,4.50
2022-08-05T23:31:07.019Z,4.15
2022-08-05T23:34:04.733Z,2.83
2022-08-05T23:36:39.710Z,4.95
2022-08-05T23:39:32.074Z,3.10
2022-08-05T23:42:08.614Z,5.68
2022-08-05T23:44:46.824Z,2.70
2022-08-05T23:47:26.867Z,3.95
2022-08-05T23:49:55.750Z,4.28
2022-08-05T23:52:32.262Z,2.15
2022-08-05T23:55:10.100Z,5.32
2022-08-05T23:57:38.870Z,5.50
